Time;durP1;ratioP1;P1;durP2;ratioP2;P2;SDS_P1;SDS_P2;PMS_P1;PMS_P2;Temp;Humidity;BMP_temperature;BMP_pressure;BME280_temperature;BME280_humidity;BME280_pressure;Samples;Min_cycle;Max_cycle;Signal;HPM_P1;HPM_P2
2021/10/18 00:01:27;;;;;;;10.98;4.53;;;11.00;99.90;;;;;;5051959;28;20127;-79
2021/10/18 00:03:53;;;;;;;6.05;4.60;;;11.00;99.90;;;;;;5105326;28;20051;-78
2021/10/18 00:06:18;;;;;;;7.43;4.60;;;11.00;99.90;;;;;;5106047;28;20188;-78
2021/10/18 00:08:44;;;;;;;6.90;4.43;;;11.00;99.90;;;;;;5078416;28;20043;-78
2021/10/18 00:11:10;;;;;;;17.25;5.18;;;11.00;99.90;;;;;;5069349;28;20516;-79
2021/10/18 00:13:36;;;;;;;12.25;4.50;;;11.00;99.90;;;;;;5090518;28;20177;-78
2021/10/18 00:16:01;;;;;;;8.15;4.50;;;11.10;99.90;;;;;;5088012;28;20031;-78
2021/10/18 00:18:27;;;;;;;5.82;4.47;;;11.10;99.90;;;;;;5070435;28;20044;-78
2021/10/18 00:20:53;;;;;;;10.27;4.60;;;11.00;99.90;;;;;;5085155;28;20048;-79
2021/10/18 00:23:19;;;;;;;8.40;4.53;;;11.00;99.90;;;;;;5087966;28;20028;-79
2021/10/18 00:25:45;;;;;;;6.88;3.95;;;11.00;99.90;;;;;;5089528;28;20042;-78
2021/10/18 00:28:11;;;;;;;9.90;4.00;;;11.00;99.90;;;;;;5088762;28;20039;-78
2021/10/18 00:30:37;;;;;;;12.45;4.65;;;11.00;99.90;;;;;;5107075;28;20689;-80
2021/10/18 00:33:03;;;;;;;13.00;4.47;;;11.00;99.90;;;;;;5104678;28;20119;-80
2021/10/18 00:35:28;;;;;;;16.17;4.63;;;11.00;99.90;;;;;;5069624;28;20040;-80
2021/10/18 00:37:54;;;;;;;8.18;4.40;;;11.00;99.90;;;;;;5096021;28;20047;-79
2021/10/18 00:40:20;;;;;;;8.15;4.43;;;11.00;99.90;;;;;;5106438;28;20137;-79
2021/10/18 00:42:46;;;;;;;6.53;4.40;;;11.00;99.90;;;;;;5088698;28;20043;-79
2021/10/18 00:45:12;;;;;;;11.40;4.55;;;11.00;99.90;;;;;;5054855;28;20051;-79
2021/10/18 00:47:38;;;;;;;9.60;4.65;;;11.00;99.90;;;;;;5106877;28;20489;-79
2021/10/18 00:50:05;;;;;;;12.18;4.78;;;11.00;99.90;;;;;;5087632;28;20051;-79
2021/10/18 00:52:34;;;;;;;10.38;4.88;;;11.00;99.90;;;;;;5106606;28;20039;-79
2021/10/18 00:55:00;;;;;;;9.25;4.15;;;10.90;99.90;;;;;;5104483;28;20548;-79
2021/10/18 00:57:26;;;;;;;11.45;4.95;;;11.00;99.90;;;;;;5089893;28;20044;-79
2021/10/18 00:59:52;;;;;;;9.18;4.68;;;10.90;99.90;;;;;;5105063;28;20064;-79
2021/10/18 01:02:18;;;;;;;14.02;4.70;;;10.90;99.90;;;;;;5088901;28;20040;-79
2021/10/18 01:04:46;;;;;;;10.05;4.68;;;10.90;99.90;;;;;;5104441;28;20895;-79
2021/10/18 01:07:13;;;;;;;18.58;6.28;;;11.00;99.90;;;;;;5096281;28;20494;-79
2021/10/18 01:09:39;;;;;;;13.20;4.68;;;11.00;99.90;;;;;;5068369;28;20055;-79
2021/10/18 01:12:05;;;;;;;18.77;6.28;;;10.90;99.90;;;;;;5101665;28;20074;-79
2021/10/18 01:14:33;;;;;;;10.63;5.50;;;10.90;99.90;;;;;;5069408;28;20090;-79
2021/10/18 01:16:59;;;;;;;11.32;5.13;;;10.90;99.90;;;;;;5084101;28;20056;-79
2021/10/18 01:19:24;;;;;;;8.98;4.70;;;10.90;99.90;;;;;;5085502;28;20105;-80
2021/10/18 01:21:56;;;;;;;8.48;4.85;;;10.90;99.90;;;;;;5067537;28;20044;-80
2021/10/18 01:24:23;;;;;;;9.45;4.68;;;10.90;99.90;;;;;;5084786;28;20028;-80
2021/10/18 01:26:49;;;;;;;8.77;4.65;;;10.90;99.90;;;;;;5071097;28;20405;-79
2021/10/18 01:29:15;;;;;;;20.50;5.13;;;10.90;99.90;;;;;;5084339;28;20044;-79
2021/10/18 01:31:41;;;;;;;11.32;5.43;;;10.90;99.90;;;;;;5086622;28;20502;-78
2021/10/18 01:34:07;;;;;;;12.68;5.13;;;10.80;99.90;;;;;;5083454;28;20048;-78
2021/10/18 01:36:34;;;;;;;11.50;5.10;;;10.90;99.90;;;;;;5085308;28;20040;-78
2021/10/18 01:39:00;;;;;;;11.35;4.78;;;10.80;99.90;;;;;;5084883;28;20078;-78
2021/10/18 01:41:26;;;;;;;13.68;5.40;;;10.80;99.90;;;;;;5086169;28;20051;-78
2021/10/18 01:43:51;;;;;;;9.20;4.85;;;10.80;99.90;;;;;;5086399;28;20039;-79
2021/10/18 01:46:17;;;;;;;17.65;5.72;;;10.80;99.90;;;;;;5083650;28;20043;-79
2021/10/18 01:48:43;;;;;;;13.68;5.53;;;10.80;99.90;;;;;;5068576;28;20083;-79
2021/10/18 01:51:09;;;;;;;9.27;4.75;;;10.80;99.90;;;;;;5083146;28;20044;-79
2021/10/18 01:53:36;;;;;;;14.77;5.68;;;10.80;99.90;;;;;;5085191;28;20486;-78
2021/10/18 01:56:02;;;;;;;11.38;5.18;;;10.80;99.90;;;;;;5084411;28;20079;-79
2021/10/18 01:58:31;;;;;;;11.02;5.05;;;10.80;99.90;;;;;;5087476;28;20040;-78
2021/10/18 02:00:59;;;;;;;11.82;5.60;;;10.80;99.90;;;;;;5069817;28;20036;-79
2021/10/18 02:03:24;;;;;;;16.25;5.60;;;10.80;99.90;;;;;;5087725;28;20040;-79
2021/10/18 02:05:50;;;;;;;11.32;5.40;;;10.70;99.90;;;;;;5085522;28;20043;-79
2021/10/18 02:08:16;;;;;;;9.73;5.32;;;10.70;99.90;;;;;;5083095;28;20509;-79
2021/10/18 02:10:41;;;;;;;13.48;5.50;;;10.70;99.90;;;;;;5088558;28;20047;-79
2021/10/18 02:13:07;;;;;;;16.85;5.75;;;10.70;99.90;;;;;;5086948;28;20482;-78
2021/10/18 02:15:33;;;;;;;10.52;5.35;;;10.70;99.90;;;;;;5105667;28;20130;-78
2021/10/18 02:17:59;;;;;;;9.50;5.22;;;10.70;99.90;;;;;;5070695;28;20093;-78
2021/10/18 02:20:24;;;;;;;11.40;5.53;;;10.70;99.90;;;;;;5104220;28;20048;-78
2021/10/18 02:22:50;;;;;;;14.70;6.13;;;10.70;99.90;;;;;;5105519;28;20039;-78
2021/10/18 02:25:16;;;;;;;17.23;6.03;;;10.70;99.90;;;;;;5086517;28;20048;-78
2021/10/18 02:27:42;;;;;;;16.42;6.40;;;10.70;99.90;;;;;;5105525;28;20036;-78
2021/10/18 02:30:10;;;;;;;13.35;6.05;;;10.70;99.90;;;;;;5086222;28;20486;-78
2021/10/18 02:32:37;;;;;;;20.02;6.75;;;10.70;99.90;;;;;;5105271;28;20047;-79
2021/10/18 02:35:13;;;;;;;14.80;6.72;;;10.70;99.90;;;;;;5087481;28;20090;-79
2021/10/18 02:37:39;;;;;;;14.25;6.15;;;10.70;99.90;;;;;;5088864;28;20113;-79
2021/10/18 02:40:05;;;;;;;10.02;6.28;;;10.70;99.90;;;;;;5104385;28;20127;-78
2021/10/18 02:42:31;;;;;;;11.13;6.15;;;10.70;99.90;;;;;;5104016;28;20461;-78
2021/10/18 02:44:57;;;;;;;12.38;6.78;;;10.70;99.90;;;;;;5104699;28;20067;-79
2021/10/18 02:47:23;;;;;;;10.55;6.43;;;10.70;99.90;;;;;;5105417;28;20044;-79
2021/10/18 02:49:48;;;;;;;15.85;6.82;;;10.70;99.90;;;;;;5091873;28;20052;-79
2021/10/18 02:52:14;;;;;;;16.48;6.82;;;10.70;99.90;;;;;;5107653;28;20043;-79
2021/10/18 02:54:40;;;;;;;17.02;7.28;;;10.70;99.90;;;;;;5108281;28;20085;-78
2021/10/18 02:57:06;;;;;;;18.75;6.60;;;10.70;99.90;;;;;;5108163;28;20039;-79
2021/10/18 02:59:32;;;;;;;16.85;6.90;;;10.70;99.90;;;;;;5107353;28;20086;-79
2021/10/18 03:01:58;;;;;;;10.07;7.00;;;10.70;99.90;;;;;;5108773;28;20050;-78
2021/10/18 03:04:24;;;;;;;11.88;6.78;;;10.70;99.90;;;;;;5090476;28;20165;-78
2021/10/18 03:06:49;;;;;;;16.17;7.15;;;10.70;99.90;;;;;;5091776;28;20070;-78
2021/10/18 03:09:15;;;;;;;21.13;7.05;;;10.70;99.90;;;;;;5102500;28;20478;-78
2021/10/18 03:11:41;;;;;;;10.45;6.93;;;10.60;99.90;;;;;;5098457;28;20116;-78
2021/10/18 03:14:06;;;;;;;16.67;7.18;;;10.70;99.90;;;;;;5107431;28;20493;-78
2021/10/18 03:16:32;;;;;;;15.98;7.45;;;10.70;99.90;;;;;;5070398;28;20036;-79
2021/10/18 03:18:58;;;;;;;13.63;7.03;;;10.70;99.90;;;;;;5102040;28;20040;-79
2021/10/18 03:21:24;;;;;;;14.52;6.85;;;10.70;99.90;;;;;;5052417;28;20047;-79
2021/10/18 03:23:49;;;;;;;12.88;7.13;;;10.80;99.90;;;;;;5083190;28;20043;-79
2021/10/18 03:26:15;;;;;;;17.15;7.10;;;10.70;99.90;;;;;;5105565;28;20039;-79
2021/10/18 03:28:42;;;;;;;12.65;6.90;;;10.70;99.90;;;;;;5107985;28;20056;-79
2021/10/18 03:31:08;;;;;;;11.82;6.80;;;10.70;99.90;;;;;;5106838;28;20040;-79
2021/10/18 03:33:39;;;;;;;14.70;7.35;;;10.80;99.90;;;;;;5090666;28;20036;-79
2021/10/18 03:36:06;;;;;;;15.73;7.78;;;10.80;99.90;;;;;;5090835;28;20488;-79
2021/10/18 03:38:32;;;;;;;17.40;7.70;;;10.70;99.90;;;;;;5090081;28;20043;-79
2021/10/18 03:40:59;;;;;;;15.93;7.50;;;10.70;99.90;;;;;;5091225;28;20074;-79
2021/10/18 03:43:25;;;;;;;15.15;6.90;;;10.70;99.90;;;;;;5105248;28;20036;-79
2021/10/18 03:45:50;;;;;;;15.68;7.43;;;10.70;99.90;;;;;;5091199;28;20050;-78
2021/10/18 03:48:16;;;;;;;10.95;7.05;;;10.80;99.90;;;;;;5089678;28;20374;-79
2021/10/18 03:50:42;;;;;;;15.50;7.22;;;10.70;99.90;;;;;;5090471;28;20050;-79
2021/10/18 03:53:08;;;;;;;26.25;6.93;;;10.70;99.90;;;;;;5090081;28;20035;-79
2021/10/18 03:55:34;;;;;;;17.90;7.75;;;10.70;99.90;;;;;;5106519;28;20044;-79
2021/10/18 03:57:59;;;;;;;16.35;7.60;;;10.70;99.90;;;;;;5072907;28;20057;-79
2021/10/18 04:00:25;;;;;;;16.52;7.90;;;10.60;99.90;;;;;;5105512;28;20096;-79
2021/10/18 04:02:51;;;;;;;22.30;8.50;;;10.60;99.90;;;;;;5090840;28;20043;-79
2021/10/18 04:05:17;;;;;;;12.90;7.32;;;10.60;99.90;;;;;;5088428;28;20128;-79
2021/10/18 04:07:46;;;;;;;14.07;7.57;;;10.60;99.90;;;;;;5090716;28;20039;-79
2021/10/18 04:10:13;;;;;;;16.33;7.82;;;10.60;99.90;;;;;;5093899;28;20949;-79
2021/10/18 04:12:38;;;;;;;14.55;7.18;;;10.60;99.90;;;;;;5104219;28;20043;-79
2021/10/18 04:15:05;;;;;;;18.17;8.55;;;10.60;99.90;;;;;;5107576;28;20509;-79
2021/10/18 04:17:31;;;;;;;19.35;7.35;;;10.60;99.90;;;;;;5105805;28;20051;-79
2021/10/18 04:19:57;;;;;;;17.60;8.23;;;10.60;99.90;;;;;;5107558;28;20138;-79
2021/10/18 04:22:22;;;;;;;20.92;7.75;;;10.50;99.90;;;;;;5104953;28;20069;-79
2021/10/18 04:24:48;;;;;;;14.32;7.38;;;10.50;99.90;;;;;;5089971;28;20050;-79
2021/10/18 04:27:14;;;;;;;11.82;6.78;;;10.50;99.90;;;;;;5068838;28;20113;-79
2021/10/18 04:29:40;;;;;;;13.35;8.27;;;10.50;99.90;;;;;;5104260;28;20048;-79
2021/10/18 04:32:06;;;;;;;14.43;7.82;;;10.40;99.90;;;;;;5090198;28;20490;-79
2021/10/18 04:34:31;;;;;;;17.15;8.50;;;10.40;99.90;;;;;;5087961;28;20108;-79
2021/10/18 04:36:57;;;;;;;17.23;8.05;;;10.40;99.90;;;;;;5107215;28;20050;-79
2021/10/18 04:39:23;;;;;;;16.15;7.40;;;10.40;99.90;;;;;;5078393;28;20071;-78
2021/10/18 04:41:49;;;;;;;13.88;7.53;;;10.40;99.90;;;;;;5100025;28;20079;-79
2021/10/18 04:44:15;;;;;;;17.42;7.88;;;10.30;99.90;;;;;;5088166;28;20451;-79
2021/10/18 04:46:41;;;;;;;19.98;8.20;;;10.40;99.90;;;;;;5089957;28;20442;-79
2021/10/18 04:49:07;;;;;;;16.38;7.78;;;10.40;99.90;;;;;;5089516;28;20039;-79
2021/10/18 04:51:33;;;;;;;17.05;7.75;;;10.40;99.90;;;;;;5088091;28;20151;-79
2021/10/18 04:53:58;;;;;;;15.27;7.93;;;10.40;99.90;;;;;;5106670;28;20044;-79
2021/10/18 04:56:24;;;;;;;21.55;7.78;;;10.40;99.90;;;;;;5104190;28;20051;-79
2021/10/18 04:58:50;;;;;;;14.60;8.18;;;10.40;99.90;;;;;;5106756;28;20047;-79
2021/10/18 05:01:16;;;;;;;13.75;7.68;;;10.30;99.90;;;;;;5070674;28;20044;-79
2021/10/18 05:03:41;;;;;;;15.15;8.02;;;10.30;99.90;;;;;;5089426;28;20035;-79
2021/10/18 05:06:07;;;;;;;15.35;8.55;;;10.30;99.90;;;;;;5088674;28;20100;-79
2021/10/18 05:08:33;;;;;;;14.18;7.72;;;10.30;99.90;;;;;;5105373;28;20051;-79
2021/10/18 05:10:58;;;;;;;15.65;7.60;;;10.30;99.90;;;;;;5079835;28;20157;-79
2021/10/18 05:13:25;;;;;;;15.93;8.60;;;10.30;99.90;;;;;;5104091;28;20071;-79
2021/10/18 05:15:52;;;;;;;20.95;8.50;;;10.30;99.90;;;;;;5089195;28;20144;-79
2021/10/18 05:18:18;;;;;;;20.60;9.52;;;10.30;99.90;;;;;;5087037;28;20549;-79
2021/10/18 05:20:46;;;;;;;13.93;8.05;;;10.20;99.90;;;;;;5105763;28;20046;-79
2021/10/18 05:23:12;;;;;;;16.38;8.82;;;10.20;99.90;;;;;;5090497;28;20047;-79
2021/10/18 05:25:37;;;;;;;19.35;8.68;;;10.20;99.90;;;;;;5088492;28;20043;-79
2021/10/18 05:28:04;;;;;;;13.55;8.20;;;10.20;99.90;;;;;;5105616;28;20489;-79
2021/10/18 05:30:29;;;;;;;13.88;8.80;;;10.20;99.90;;;;;;5087139;28;20173;-79
2021/10/18 05:32:57;;;;;;;18.92;8.35;;;10.20;99.90;;;;;;5106085;28;21341;-79
2021/10/18 05:35:24;;;;;;;23.52;9.15;;;10.20;99.90;;;;;;5104058;28;20180;-79
2021/10/18 05:37:50;;;;;;;14.02;8.10;;;10.20;99.90;;;;;;5105889;28;20493;-79
2021/10/18 05:40:18;;;;;;;17.73;8.65;;;10.20;99.90;;;;;;5086869;28;20039;-79
2021/10/18 05:42:43;;;;;;;13.90;8.43;;;10.10;99.90;;;;;;5089015;28;20138;-78
2021/10/18 05:45:11;;;;;;;14.63;8.88;;;10.20;99.90;;;;;;5105073;28;20122;-79
2021/10/18 05:47:56;;;;;;;15.30;8.98;;;10.10;99.90;;;;;;5104593;28;20914;-79
2021/10/18 05:50:24;;;;;;;18.40;9.60;;;10.10;99.90;;;;;;5088144;28;20036;-79
2021/10/18 05:52:49;;;;;;;16.33;8.77;;;10.00;99.90;;;;;;5113976;27;20055;-79
2021/10/18 05:55:15;;;;;;;15.70;8.57;;;10.00;99.90;;;;;;5106589;28;20652;-78
2021/10/18 05:57:46;;;;;;;20.10;8.75;;;10.00;99.90;;;;;;5104564;28;20177;-79
2021/10/18 06:00:12;;;;;;;31.63;9.80;;;10.00;99.90;;;;;;5105628;28;20393;-79
2021/10/18 06:02:38;;;;;;;18.55;9.50;;;10.00;99.90;;;;;;5120036;28;20047;-79
2021/10/18 06:05:04;;;;;;;22.60;9.60;;;10.00;99.90;;;;;;5104260;28;20468;-78
2021/10/18 06:07:29;;;;;;;19.02;9.02;;;9.90;99.90;;;;;;5088498;28;20095;-78
2021/10/18 06:09:55;;;;;;;16.98;10.00;;;9.90;99.90;;;;;;5077367;28;20048;-78
2021/10/18 06:12:21;;;;;;;17.95;10.27;;;9.80;99.90;;;;;;5100287;28;20055;-79
2021/10/18 06:14:46;;;;;;;25.92;10.05;;;9.80;99.90;;;;;;5104229;28;20047;-78
2021/10/18 06:17:12;;;;;;;18.67;10.63;;;9.80;99.90;;;;;;5088747;28;20048;-79
2021/10/18 06:19:38;;;;;;;20.95;9.50;;;9.70;99.90;;;;;;5103994;28;20561;-78
2021/10/18 06:22:03;;;;;;;20.90;11.55;;;9.70;99.90;;;;;;5089457;27;20059;-79
2021/10/18 06:24:29;;;;;;;18.42;9.13;;;9.70;99.90;;;;;;5109462;28;20048;-79
2021/10/18 06:26:55;;;;;;;21.38;10.75;;;9.70;99.90;;;;;;5091060;28;20043;-79
2021/10/18 06:29:21;;;;;;;21.92;10.75;;;9.70;99.90;;;;;;5075341;28;20059;-79
2021/10/18 06:31:47;;;;;;;20.88;10.57;;;9.60;99.90;;;;;;5090411;28;20134;-79
2021/10/18 06:34:13;;;;;;;19.20;10.63;;;9.60;99.90;;;;;;5092330;28;20050;-79
2021/10/18 06:36:38;;;;;;;18.55;11.25;;;9.70;99.90;;;;;;5090256;28;20047;-78
2021/10/18 06:39:04;;;;;;;24.58;11.77;;;9.60;99.90;;;;;;5109272;28;20043;-79
2021/10/18 06:41:30;;;;;;;17.10;10.88;;;9.60;99.90;;;;;;5108062;28;20079;-78
2021/10/18 06:43:56;;;;;;;20.80;11.80;;;9.60;99.90;;;;;;5091360;28;20100;-79
2021/10/18 06:46:21;;;;;;;25.25;12.10;;;9.70;99.90;;;;;;5108689;28;20055;-79
2021/10/18 06:48:47;;;;;;;20.27;9.95;;;9.70;99.90;;;;;;5107407;28;20558;-79
2021/10/18 06:51:13;;;;;;;18.70;10.10;;;9.70;99.90;;;;;;5091950;28;20052;-79
2021/10/18 06:53:39;;;;;;;19.17;11.38;;;9.70;99.90;;;;;;5089894;28;20545;-79
2021/10/18 06:56:06;;;;;;;21.48;11.65;;;9.60;99.90;;;;;;5109296;28;20456;-79
2021/10/18 06:58:33;;;;;;;16.65;11.73;;;9.60;99.90;;;;;;5107512;28;20031;-78
2021/10/18 07:01:00;;;;;;;27.33;13.63;;;9.60;99.90;;;;;;5107458;28;20047;-79
2021/10/18 07:03:26;;;;;;;22.73;13.32;;;9.60;99.90;;;;;;5097919;28;20058;-79
2021/10/18 07:05:51;;;;;;;19.60;12.98;;;9.60;99.90;;;;;;5093303;28;20048;-79
2021/10/18 07:08:17;;;;;;;21.55;12.85;;;9.60;99.90;;;;;;5094814;28;20040;-78
2021/10/18 07:10:44;;;;;;;20.58;13.23;;;9.60;99.90;;;;;;5092798;28;20052;-79
2021/10/18 07:13:09;;;;;;;22.10;12.75;;;9.60;99.90;;;;;;5074999;28;20093;-78
2021/10/18 07:15:37;;;;;;;21.60;12.20;;;9.70;99.90;;;;;;5096033;28;20541;-78
2021/10/18 07:18:03;;;;;;;19.27;12.85;;;9.80;99.90;;;;;;5088154;28;20101;-79
2021/10/18 07:20:28;;;;;;;21.25;13.48;;;9.80;99.90;;;;;;5070502;28;20467;-78
2021/10/18 07:22:59;;;;;;;24.50;13.20;;;9.90;99.90;;;;;;5069672;28;20044;-78
2021/10/18 07:25:25;;;;;;;23.17;12.43;;;10.00;99.90;;;;;;5080160;28;20062;-79
2021/10/18 07:27:51;;;;;;;17.98;12.70;;;10.00;99.90;;;;;;5091894;28;20036;-79
2021/10/18 07:30:17;;;;;;;21.63;12.93;;;10.10;99.90;;;;;;5088245;28;20482;-79
2021/10/18 07:32:44;;;;;;;25.83;13.27;;;10.10;99.90;;;;;;5086621;28;20117;-79
2021/10/18 07:35:13;;;;;;;21.83;12.82;;;10.20;99.90;;;;;;5087684;28;20040;-79
2021/10/18 07:37:40;;;;;;;29.10;13.45;;;10.30;99.90;;;;;;5087060;28;20397;-79
2021/10/18 07:40:07;;;;;;;23.88;12.45;;;10.40;99.90;;;;;;5086677;28;20043;-79
2021/10/18 07:42:33;;;;;;;22.80;12.45;;;10.50;99.90;;;;;;5112608;27;20047;-79
2021/10/18 07:44:58;;;;;;;24.40;12.98;;;10.60;99.90;;;;;;5087743;28;20393;-79
2021/10/18 07:47:25;;;;;;;23.38;12.88;;;10.60;99.90;;;;;;5088308;28;20052;-78
2021/10/18 07:49:51;;;;;;;21.23;11.45;;;10.70;99.90;;;;;;5088950;28;20051;-79
2021/10/18 07:52:18;;;;;;;23.70;11.95;;;10.80;99.90;;;;;;5075262;28;20401;-79
2021/10/18 07:54:46;;;;;;;23.63;12.55;;;10.90;99.90;;;;;;5057683;28;20510;-80
2021/10/18 07:57:12;;;;;;;18.77;11.13;;;10.90;99.90;;;;;;5086807;28;20087;-78
2021/10/18 07:59:38;;;;;;;16.83;10.88;;;11.10;99.90;;;;;;5101569;28;20507;-78
2021/10/18 08:02:03;;;;;;;20.30;11.73;;;11.10;99.90;;;;;;5081547;28;20451;-78
2021/10/18 08:04:29;;;;;;;20.08;11.63;;;11.20;99.90;;;;;;5092558;28;20051;-79
2021/10/18 08:06:55;;;;;;;19.88;11.65;;;11.30;99.90;;;;;;5085452;28;20032;-78
2021/10/18 08:09:23;;;;;;;18.15;12.68;;;11.30;99.90;;;;;;5090010;28;20092;-78
2021/10/18 08:11:49;;;;;;;24.95;13.77;;;11.40;99.90;;;;;;5105501;28;20417;-78
2021/10/18 08:14:16;;;;;;;18.85;13.13;;;11.40;99.90;;;;;;5106947;28;20047;-78
2021/10/18 08:16:43;;;;;;;20.70;13.38;;;11.50;99.90;;;;;;5107123;28;20047;-78
2021/10/18 08:19:08;;;;;;;23.75;13.63;;;11.50;99.90;;;;;;5088861;28;20051;-78
2021/10/18 08:21:34;;;;;;;25.10;13.60;;;11.60;99.90;;;;;;5089970;28;20104;-78
2021/10/18 08:24:00;;;;;;;20.38;13.43;;;11.60;99.90;;;;;;5105504;28;20051;-78
2021/10/18 08:26:26;;;;;;;24.15;13.65;;;11.70;99.90;;;;;;5090269;28;20417;-79
2021/10/18 08:28:51;;;;;;;21.35;13.57;;;11.70;99.90;;;;;;5104293;28;20054;-78
2021/10/18 08:31:17;;;;;;;24.42;12.48;;;11.80;99.90;;;;;;5090505;28;20044;-78
2021/10/18 08:33:43;;;;;;;20.70;13.65;;;11.80;99.90;;;;;;5071878;28;20047;-78
2021/10/18 08:36:09;;;;;;;24.75;13.45;;;11.90;99.90;;;;;;5103937;28;20043;-79
2021/10/18 08:38:47;;;;;;;22.73;13.75;;;12.00;99.90;;;;;;5105650;28;20054;-79
2021/10/18 08:41:38;;;;;;;19.45;12.73;;;12.00;99.90;;;;;;5101341;28;20074;-79
2021/10/18 08:44:17;;;;;;;17.25;12.82;;;12.10;99.90;;;;;;5101878;28;20050;-80
2021/10/18 08:46:48;;;;;;;24.00;13.80;;;12.20;99.90;;;;;;5085268;28;20048;-79
2021/10/18 08:49:17;;;;;;;19.23;13.20;;;12.30;99.90;;;;;;5087887;28;20043;-79
2021/10/18 08:51:42;;;;;;;20.90;12.90;;;12.30;99.90;;;;;;5107414;27;20180;-80
2021/10/18 08:54:09;;;;;;;20.98;13.55;;;12.40;99.90;;;;;;5070616;28;20142;-79
2021/10/18 08:56:39;;;;;;;19.05;12.93;;;12.40;99.90;;;;;;5090137;28;20040;-79
2021/10/18 08:59:05;;;;;;;21.45;13.25;;;12.50;99.90;;;;;;5084313;28;20059;-79
2021/10/18 09:01:40;;;;;;;26.77;14.27;;;12.60;99.90;;;;;;5092486;28;20069;-79
2021/10/18 09:04:25;;;;;;;21.73;13.57;;;12.70;99.90;;;;;;5083671;28;20036;-79
2021/10/18 09:06:52;;;;;;;22.55;13.63;;;12.70;99.90;;;;;;5081552;28;20092;-79
2021/10/18 09:09:22;;;;;;;20.42;13.07;;;12.80;99.90;;;;;;5091319;28;20504;-79
2021/10/18 09:11:48;;;;;;;;;;;12.90;99.90;;;;;;5077366;28;20482;-79
2021/10/18 09:14:14;;;;;;;19.83;13.20;;;12.90;99.90;;;;;;5089517;28;19931;-79
2021/10/18 09:16:45;;;;;;;19.80;13.18;;;12.90;99.90;;;;;;5121701;27;20851;-79
2021/10/18 09:19:26;;;;;;;23.05;13.98;;;12.90;99.90;;;;;;5088692;28;20062;-79
2021/10/18 09:22:00;;;;;;;26.38;13.60;;;13.00;99.90;;;;;;5105841;28;20047;-79
2021/10/18 09:24:28;;;;;;;22.17;14.15;;;13.10;99.90;;;;;;5086777;28;20522;-79
2021/10/18 09:26:56;;;;;;;17.30;12.82;;;13.10;99.90;;;;;;5079624;28;20814;-79
2021/10/18 09:29:34;;;;;;;20.65;13.32;;;13.20;99.90;;;;;;5084382;28;20079;-80
2021/10/18 09:32:02;;;;;;;25.40;14.13;;;13.20;99.90;;;;;;5104033;28;20610;-80
2021/10/18 09:34:34;;;;;;;20.20;14.10;;;13.40;99.90;;;;;;5104401;28;20050;-79
2021/10/18 09:37:08;;;;;;;17.73;12.57;;;13.40;99.90;;;;;;5100696;28;20573;-79
2021/10/18 09:39:38;;;;;;;25.25;14.88;;;13.50;99.90;;;;;;5084678;28;20039;-79
2021/10/18 09:42:06;;;;;;;24.75;14.75;;;13.60;99.90;;;;;;5072882;28;20667;-79
2021/10/18 09:45:00;;;;;;;23.00;14.65;;;13.60;99.90;;;;;;5086521;28;20040;-79
2021/10/18 10:53:26;;;;;;;;;;;14.90;99.90;;;;;;5099793;28;21247;-78
2021/10/18 10:55:54;;;;;;;18.13;12.20;;;14.90;99.90;;;;;;5091415;28;20434;-78
2021/10/18 10:58:36;;;;;;;15.80;11.43;;;14.90;99.90;;;;;;5091504;28;20468;-78
2021/10/18 11:01:04;;;;;;;19.95;12.52;;;15.10;99.90;;;;;;5070474;28;20036;-78
2021/10/18 11:03:40;;;;;;;18.15;12.73;;;15.10;99.90;;;;;;5099015;28;20051;-78
2021/10/18 11:06:14;;;;;;;18.63;12.55;;;15.20;99.90;;;;;;5070382;28;20073;-79
2021/10/18 11:08:47;;;;;;;16.83;12.85;;;15.40;99.90;;;;;;5083745;28;20110;-78
2021/10/18 11:11:24;;;;;;;18.70;13.75;;;15.20;99.90;;;;;;5091565;28;20051;-78
2021/10/18 11:13:58;;;;;;;19.05;12.50;;;15.20;99.90;;;;;;5107241;28;20134;-78
2021/10/18 11:16:26;;;;;;;16.58;12.70;;;15.30;99.90;;;;;;5107571;27;20044;-78
2021/10/18 11:18:55;;;;;;;19.33;12.63;;;15.40;99.90;;;;;;5100775;28;20047;-78
2021/10/18 11:21:54;;;;;;;16.52;12.38;;;15.50;99.90;;;;;;5106514;28;20081;-78
2021/10/18 11:24:21;;;;;;;14.60;12.52;;;15.50;99.90;;;;;;5099723;28;20405;-78
2021/10/18 11:26:54;;;;;;;16.58;11.98;;;15.50;99.90;;;;;;5103049;28;20039;-78
2021/10/18 11:29:30;;;;;;;15.32;12.23;;;15.60;99.90;;;;;;5103474;28;20432;-78
2021/10/18 11:32:08;;;;;;;21.15;12.38;;;15.50;99.90;;;;;;5085877;28;20040;-78
2021/10/18 11:34:35;;;;;;;18.45;12.10;;;15.50;99.90;;;;;;5105302;28;20113;-78
2021/10/18 11:37:02;;;;;;;18.77;11.85;;;15.40;99.90;;;;;;5090338;28;20068;-78
2021/10/18 11:39:29;;;;;;;19.30;11.93;;;15.30;99.90;;;;;;5103963;28;20050;-78
2021/10/18 11:41:58;;;;;;;19.42;12.25;;;15.20;99.90;;;;;;5088852;28;20074;-78
2021/10/18 11:44:57;;;;;;;17.85;11.57;;;15.30;99.90;;;;;;5085586;28;20058;-78
2021/10/18 11:47:35;;;;;;;16.42;11.20;;;15.20;99.90;;;;;;5100604;28;20039;-78
2021/10/18 11:50:15;;;;;;;15.35;11.25;;;15.20;99.90;;;;;;5085430;28;20048;-78
2021/10/18 11:52:46;;;;;;;14.18;11.38;;;15.20;99.90;;;;;;5080610;28;20047;-78
2021/10/18 11:55:15;;;;;;;18.13;11.95;;;15.10;99.90;;;;;;5086364;28;21084;-78
2021/10/18 11:57:44;;;;;;;20.67;11.57;;;15.20;99.90;;;;;;5087684;28;20048;-78
2021/10/18 12:00:13;;;;;;;16.92;11.73;;;15.20;99.90;;;;;;5084994;28;20047;-78
2021/10/18 12:02:45;;;;;;;16.23;10.63;;;15.20;99.90;;;;;;5093683;28;20044;-78
2021/10/18 12:05:12;;;;;;;17.23;11.88;;;15.30;99.90;;;;;;5085654;28;20239;-78
2021/10/18 12:07:38;;;;;;;17.92;11.60;;;15.20;99.90;;;;;;5070098;28;20109;-78
2021/10/18 12:10:12;;;;;;;16.35;11.02;;;15.30;99.90;;;;;;5085861;28;20068;-78
2021/10/18 12:12:37;;;;;;;18.58;13.23;;;15.20;99.90;;;;;;5103300;28;20058;-78
2021/10/18 12:15:05;;;;;;;24.85;12.75;;;15.10;99.90;;;;;;5090164;28;20044;-78
2021/10/18 12:17:32;;;;;;;19.73;12.43;;;15.10;99.90;;;;;;5105662;28;20043;-78
2021/10/18 12:20:00;;;;;;;19.88;12.30;;;15.00;99.90;;;;;;5089178;28;20126;-78
2021/10/18 12:22:25;;;;;;;19.13;12.73;;;15.00;99.90;;;;;;5105800;28;20093;-78
2021/10/18 12:25:01;;;;;;;17.33;10.75;;;15.00;99.90;;;;;;5073269;28;20083;-78
2021/10/18 12:27:28;;;;;;;18.85;9.90;;;14.90;99.90;;;;;;5106922;28;20044;-78
2021/10/18 12:29:54;;;;;;;14.77;11.32;;;15.10;99.90;;;;;;5104957;28;20104;-78
2021/10/18 12:32:20;;;;;;;20.65;13.85;;;15.10;99.90;;;;;;5106985;28;20048;-78
2021/10/18 12:34:45;;;;;;;24.25;14.30;;;15.10;99.90;;;;;;5105480;28;20036;-78
2021/10/18 12:37:12;;;;;;;18.73;11.70;;;15.20;99.90;;;;;;5089475;28;20046;-78
2021/10/18 12:39:50;;;;;;;15.68;12.02;;;15.20;99.90;;;;;;5105676;28;20119;-78
2021/10/18 12:42:27;;;;;;;16.20;11.25;;;15.20;99.90;;;;;;5084994;28;20049;-78
2021/10/18 12:45:12;;;;;;;15.55;10.55;;;15.20;99.90;;;;;;5088181;28;20120;-78
2021/10/18 12:47:40;;;;;;;20.75;12.20;;;15.30;99.90;;;;;;5104973;28;20056;-78
2021/10/18 12:50:06;;;;;;;18.95;11.57;;;15.40;99.90;;;;;;5105865;28;20047;-78
2021/10/18 12:52:54;;;;;;;20.23;10.55;;;15.40;99.90;;;;;;5104797;28;20054;-78
2021/10/18 12:55:23;;;;;;;15.48;11.98;;;15.50;99.90;;;;;;5105168;28;20052;-78
2021/10/18 12:57:54;;;;;;;20.90;11.25;;;15.40;99.90;;;;;;5104923;28;20500;-78
2021/10/18 13:00:31;;;;;;;17.50;10.63;;;15.40;99.90;;;;;;5103737;28;20393;-78
2021/10/18 13:02:59;;;;;;;33.58;11.73;;;15.40;99.90;;;;;;5105985;28;20043;-78
2021/10/18 13:05:31;;;;;;;17.13;11.05;;;15.40;99.90;;;;;;5105109;28;20122;-78
2021/10/18 13:07:59;;;;;;;17.95;11.10;;;15.40;99.90;;;;;;5105565;28;20504;-78
2021/10/18 13:10:35;;;;;;;18.88;10.57;;;15.50;99.90;;;;;;5097430;28;20134;-78
2021/10/18 13:13:06;;;;;;;16.70;10.23;;;15.60;99.90;;;;;;5089793;28;20058;-78
2021/10/18 13:15:33;;;;;;;13.52;9.77;;;15.70;99.90;;;;;;5094415;28;20051;-78
2021/10/18 13:17:59;;;;;;;15.68;10.13;;;15.80;99.90;;;;;;5118730;27;20034;-78
2021/10/18 13:20:26;;;;;;;15.07;9.57;;;16.00;99.90;;;;;;5087086;28;20513;-79
2021/10/18 13:22:54;;;;;;;23.23;9.45;;;16.20;99.90;;;;;;5100905;28;20485;-79
2021/10/18 13:25:21;;;;;;;15.77;9.25;;;16.10;99.90;;;;;;5082516;28;20550;-78
2021/10/18 13:27:48;;;;;;;14.30;9.45;;;16.20;99.90;;;;;;5094554;28;20039;-78
2021/10/18 13:30:15;;;;;;;12.77;8.50;;;16.20;99.90;;;;;;5101033;28;20035;-78
2021/10/18 13:32:42;;;;;;;17.70;8.95;;;16.10;99.90;;;;;;5102726;28;20051;-78
2021/10/18 13:35:09;;;;;;;22.58;9.48;;;16.20;99.90;;;;;;5081449;28;20078;-78
2021/10/18 13:37:35;;;;;;;13.38;9.00;;;16.30;99.90;;;;;;5083780;28;20051;-78
2021/10/18 13:40:03;;;;;;;22.85;9.68;;;16.40;99.90;;;;;;5080884;28;20054;-79
2021/10/18 13:42:29;;;;;;;14.88;9.45;;;16.50;99.90;;;;;;5092049;28;20484;-78
2021/10/18 13:44:55;;;;;;;15.90;9.15;;;16.50;99.90;;;;;;5085141;28;20059;-78